Time;durP1;ratioP1;P1;durP2;ratioP2;P2;SDS_P1;SDS_P2;PMS_P1;PMS_P2;Temp;Humidity;BMP_temperature;BMP_pressure;BME280_temperature;BME280_humidity;BME280_pressure;Samples;Min_cycle;Max_cycle;Signal;HPM_P1;HPM_P2
2022/12/02 00:02:38;;;;;;;38.80;20.37;;;4.90;99.90;;;;;;10428091;28;20360;-71
2022/12/02 00:07:39;;;;;;;39.13;20.30;;;4.90;99.90;;;;;;10430271;28;20212;-72
2022/12/02 00:12:40;;;;;;;38.30;19.40;;;4.80;99.90;;;;;;10433893;28;20227;-72
2022/12/02 00:17:40;;;;;;;37.37;20.37;;;4.90;99.90;;;;;;10427659;28;20697;-72
2022/12/02 00:22:41;;;;;;;36.30;20.30;;;4.90;99.90;;;;;;10430808;28;20213;-69
2022/12/02 00:27:41;;;;;;;34.57;19.97;;;4.80;99.90;;;;;;10431034;28;20231;-70
2022/12/02 00:32:42;;;;;;;38.03;19.97;;;4.80;99.90;;;;;;10424563;28;20216;-73
2022/12/02 00:37:45;;;;;;;37.17;19.90;;;4.80;99.90;;;;;;10432193;28;20223;-73
2022/12/02 00:42:46;;;;;;;39.23;20.10;;;4.70;99.90;;;;;;10433231;28;20217;-74
2022/12/02 00:47:46;;;;;;;35.77;20.10;;;4.70;99.90;;;;;;10430035;28;20713;-73
2022/12/02 00:52:47;;;;;;;38.13;20.53;;;4.70;99.90;;;;;;10431148;28;20224;-72
2022/12/02 00:57:48;;;;;;;38.27;19.63;;;4.70;99.90;;;;;;10439165;28;20215;-73
2022/12/02 01:02:48;;;;;;;38.70;20.47;;;4.60;99.90;;;;;;10438855;28;20686;-73
2022/12/02 01:07:49;;;;;;;38.17;20.50;;;4.60;99.90;;;;;;10439335;28;20216;-73
2022/12/02 01:12:49;;;;;;;36.47;20.17;;;4.70;99.90;;;;;;10445831;28;20292;-73
2022/12/02 01:17:50;;;;;;;39.47;19.83;;;4.70;99.90;;;;;;10449933;28;20678;-73
2022/12/02 01:22:50;;;;;;;37.23;19.50;;;4.70;99.90;;;;;;10437161;28;20216;-73
2022/12/02 01:27:51;;;;;;;34.47;19.70;;;4.80;99.90;;;;;;10445314;28;20601;-72
2022/12/02 01:32:52;;;;;;;35.93;20.53;;;4.70;99.90;;;;;;10435584;28;20250;-73
2022/12/02 01:37:52;;;;;;;41.07;21.00;;;4.70;99.90;;;;;;10451514;28;20303;-73
2022/12/02 01:42:53;;;;;;;39.90;20.73;;;4.70;99.90;;;;;;10437294;28;20277;-72
2022/12/02 01:47:53;;;;;;;37.53;20.97;;;4.70;99.90;;;;;;10445080;28;20219;-73
2022/12/02 01:52:56;;;;;;;36.33;19.80;;;4.60;99.90;;;;;;10435099;28;20247;-72
2022/12/02 01:57:57;;;;;;;38.00;19.97;;;4.70;99.90;;;;;;10427290;28;20758;-71
2022/12/02 02:02:58;;;;;;;40.67;19.83;;;4.70;99.90;;;;;;10445338;28;20228;-71
2022/12/02 02:08:07;;;;;;;35.10;20.13;;;4.70;99.90;;;;;;10431725;28;20220;-71
2022/12/02 02:13:10;;;;;;;39.37;18.93;;;4.70;99.90;;;;;;10427095;28;20228;-72
2022/12/02 02:18:11;;;;;;;36.23;19.30;;;4.70;99.90;;;;;;10436700;28;20222;-71
2022/12/02 02:23:16;;;;;;;35.43;19.33;;;4.80;99.90;;;;;;10431633;28;20224;-73
2022/12/02 02:28:17;;;;;;;37.63;19.40;;;4.80;99.90;;;;;;10434945;28;20216;-73
2022/12/02 02:33:20;;;;;;;35.77;19.07;;;4.80;99.90;;;;;;10430534;28;20288;-73
2022/12/02 02:38:23;;;;;;;36.60;19.33;;;4.80;99.90;;;;;;10429427;28;20233;-74
2022/12/02 02:43:27;;;;;;;38.33;19.77;;;4.80;99.90;;;;;;10427889;28;20228;-73
2022/12/02 02:48:28;;;;;;;37.90;19.40;;;4.80;99.90;;;;;;10432502;28;20236;-74
2022/12/02 02:53:29;;;;;;;36.07;19.60;;;4.80;99.90;;;;;;10448777;28;20232;-74
2022/12/02 02:58:33;;;;;;;37.37;18.43;;;4.70;99.90;;;;;;10433943;28;20221;-73
2022/12/02 03:03:41;;;;;;;36.13;19.33;;;4.80;99.90;;;;;;10442815;28;20882;-74
2022/12/02 03:08:45;;;;;;;33.77;19.50;;;4.70;99.90;;;;;;10427651;28;20286;-74
2022/12/02 03:13:49;;;;;;;36.30;19.10;;;4.70;99.90;;;;;;10429251;28;20320;-74
2022/12/02 03:18:51;;;;;;;36.90;19.63;;;4.70;99.90;;;;;;10443064;28;20273;-76
2022/12/02 03:23:55;;;;;;;31.73;17.83;;;4.80;99.90;;;;;;10428378;28;20240;-73
2022/12/02 03:28:57;;;;;;;34.90;20.03;;;4.70;99.90;;;;;;10435859;28;20224;-74
2022/12/02 03:33:58;;;;;;;36.10;18.57;;;4.70;99.90;;;;;;10425470;28;20380;-72
2022/12/02 03:38:58;;;;;;;36.43;19.97;;;4.70;99.90;;;;;;10434843;28;20324;-72
2022/12/02 03:43:59;;;;;;;32.33;18.83;;;4.70;99.90;;;;;;10435006;28;20269;-72
2022/12/02 03:49:01;;;;;;;38.47;20.27;;;4.60;99.90;;;;;;10425295;28;20318;-73
2022/12/02 03:54:01;;;;;;;36.83;19.80;;;4.60;99.90;;;;;;10433927;28;20224;-72
2022/12/02 03:59:02;;;;;;;38.83;19.50;;;4.60;99.90;;;;;;10425380;28;20708;-73
2022/12/02 04:04:02;;;;;;;38.97;20.43;;;4.60;99.90;;;;;;10432379;28;20215;-73
2022/12/02 04:09:03;;;;;;;35.10;20.00;;;4.70;99.90;;;;;;10426294;28;20783;-72
2022/12/02 04:14:04;;;;;;;34.83;19.17;;;4.60;99.90;;;;;;10433244;28;20220;-73
2022/12/02 04:19:04;;;;;;;35.63;19.83;;;4.60;99.90;;;;;;10431971;28;20687;-74
2022/12/02 04:24:05;;;;;;;38.83;19.93;;;4.60;99.90;;;;;;10424899;28;20216;-75
2022/12/02 04:29:06;;;;;;;37.27;20.23;;;4.60;99.90;;;;;;10433489;28;20299;-72
2022/12/02 04:34:06;;;;;;;37.07;19.70;;;4.60;99.90;;;;;;10430797;28;20230;-74
2022/12/02 04:39:07;;;;;;;36.77;19.27;;;4.60;99.90;;;;;;10425666;28;20751;-75
2022/12/02 04:44:07;;;;;;;37.73;20.20;;;4.60;99.90;;;;;;10431170;28;20255;-75
2022/12/02 04:49:08;;;;;;;35.67;20.33;;;4.70;99.90;;;;;;10431693;28;20231;-74
2022/12/02 04:54:08;;;;;;;39.33;19.53;;;4.60;99.90;;;;;;10423999;28;20252;-71
2022/12/02 04:59:09;;;;;;;34.87;20.43;;;4.60;99.90;;;;;;10430927;28;20301;-72
2022/12/02 05:04:09;;;;;;;36.50;20.13;;;4.70;99.90;;;;;;10423705;28;20236;-73
2022/12/02 05:09:10;;;;;;;32.93;19.00;;;4.70;99.90;;;;;;10431117;28;20719;-73
2022/12/02 05:14:11;;;;;;;35.50;19.33;;;4.60;99.90;;;;;;10437551;28;20231;-73
2022/12/02 05:19:11;;;;;;;35.50;19.00;;;4.50;99.90;;;;;;10432362;28;20219;-74
2022/12/02 05:24:12;;;;;;;35.83;19.90;;;4.50;99.90;;;;;;10429691;28;20679;-73
2022/12/02 05:29:12;;;;;;;36.40;18.33;;;4.60;99.90;;;;;;10422934;28;20224;-72
2022/12/02 05:34:13;;;;;;;35.40;18.13;;;4.60;99.90;;;;;;10433193;28;20212;-72
2022/12/02 05:39:17;;;;;;;37.57;19.40;;;4.60;99.90;;;;;;10428755;28;20243;-75
2022/12/02 05:44:19;;;;;;;28.73;17.87;;;4.50;99.90;;;;;;10430748;28;20766;-74
2022/12/02 05:49:22;;;;;;;36.53;19.37;;;4.60;99.90;;;;;;10435875;28;20236;-73
2022/12/02 05:54:24;;;;;;;31.80;18.47;;;4.70;99.90;;;;;;10433131;28;20254;-74
2022/12/02 05:59:25;;;;;;;33.47;18.50;;;4.70;99.90;;;;;;10434096;28;20231;-73
2022/12/02 06:04:30;;;;;;;36.33;18.53;;;4.70;99.90;;;;;;10429549;28;20696;-73
2022/12/02 06:09:32;;;;;;;37.03;18.80;;;4.70;99.90;;;;;;10432768;28;20216;-73
2022/12/02 06:14:34;;;;;;;34.77;18.27;;;4.70;99.90;;;;;;10431815;28;20225;-73
2022/12/02 06:19:48;;;;;;;30.80;17.80;;;4.60;99.90;;;;;;10434784;28;20830;-73
2022/12/02 06:24:49;;;;;;;34.53;18.43;;;4.60;99.90;;;;;;10436023;28;20235;-73
2022/12/02 06:29:54;;;;;;;34.13;18.67;;;4.50;99.90;;;;;;10436728;28;20224;-73
2022/12/02 06:34:55;;;;;;;35.47;19.00;;;4.50;99.90;;;;;;10428510;28;20224;-72
2022/12/02 06:39:58;;;;;;;34.40;18.30;;;4.40;99.90;;;;;;10428191;28;20251;-74
2022/12/02 06:45:22;;;;;;;32.17;16.83;;;4.40;99.90;;;;;;10422627;28;20253;-74
2022/12/02 06:50:34;;;;;;;31.80;18.10;;;4.40;99.90;;;;;;10429742;28;20325;-74
2022/12/02 06:55:39;;;;;;;32.80;17.90;;;4.40;99.90;;;;;;10430049;28;20448;-72
2022/12/02 07:00:40;;;;;;;32.73;19.50;;;4.30;99.90;;;;;;10427726;28;20216;-73
2022/12/02 07:05:40;;;;;;;39.70;17.97;;;4.40;99.90;;;;;;10440265;28;20216;-72
2022/12/02 07:10:41;;;;;;;29.70;17.93;;;4.40;99.90;;;;;;10428360;28;20220;-73
2022/12/02 07:15:41;;;;;;;33.47;17.43;;;4.30;99.90;;;;;;10438335;28;20593;-72
2022/12/02 07:20:44;;;;;;;33.27;18.37;;;4.30;99.90;;;;;;10436518;28;20207;-73
2022/12/02 07:25:50;;;;;;;33.33;18.03;;;4.40;99.90;;;;;;10425831;28;20212;-73
2022/12/02 07:30:55;;;;;;;31.10;17.50;;;4.40;99.90;;;;;;10433449;28;20220;-72
2022/12/02 07:35:56;;;;;;;28.00;17.23;;;4.40;99.90;;;;;;10425362;28;20209;-73
2022/12/02 07:40:56;;;;;;;27.53;17.37;;;4.40;99.90;;;;;;10437722;28;20639;-73
2022/12/02 07:45:57;;;;;;;31.50;16.83;;;4.40;99.90;;;;;;10422425;28;20316;-73
2022/12/02 07:51:00;;;;;;;27.80;16.20;;;4.40;99.90;;;;;;10423002;28;20227;-73
2022/12/02 07:56:01;;;;;;;30.23;16.07;;;4.40;99.90;;;;;;10431503;28;20223;-73
2022/12/02 08:01:02;;;;;;;26.80;16.87;;;4.40;99.90;;;;;;10422859;28;20414;-73
2022/12/02 08:06:02;;;;;;;25.40;15.63;;;4.40;99.90;;;;;;10429483;28;20219;-73
2022/12/02 08:11:03;;;;;;;25.13;15.77;;;4.40;99.90;;;;;;10423927;28;20414;-73
2022/12/02 08:16:04;;;;;;;25.10;16.07;;;4.40;99.90;;;;;;10423264;28;20224;-73
2022/12/02 08:21:04;;;;;;;25.03;15.40;;;4.40;99.90;;;;;;10425651;28;20223;-74
2022/12/02 08:26:05;;;;;;;22.70;14.57;;;4.40;99.90;;;;;;10429932;28;20594;-72
2022/12/02 08:31:05;;;;;;;25.33;14.40;;;4.40;99.90;;;;;;10424913;28;20656;-73
2022/12/02 08:36:06;;;;;;;22.10;13.67;;;4.40;99.90;;;;;;10428819;28;20212;-73
2022/12/02 08:41:11;;;;;;;21.87;14.60;;;4.40;99.90;;;;;;10424618;28;20217;-73
2022/12/02 08:46:12;;;;;;;22.23;14.87;;;4.40;99.90;;;;;;10429517;28;20254;-73
2022/12/02 08:51:12;;;;;;;23.13;14.47;;;4.40;99.90;;;;;;10432886;28;20224;-73
2022/12/02 08:56:16;;;;;;;20.70;13.53;;;4.30;99.90;;;;;;10427736;28;20219;-73
2022/12/02 09:01:17;;;;;;;22.30;13.27;;;4.20;99.90;;;;;;10424541;28;20221;-74
2022/12/02 09:06:17;;;;;;;20.43;13.73;;;4.10;99.90;;;;;;10437526;28;20631;-74
2022/12/02 09:11:18;;;;;;;19.57;13.63;;;4.20;99.90;;;;;;10435671;28;20293;-73
2022/12/02 09:16:18;;;;;;;20.70;13.13;;;4.30;99.90;;;;;;10431897;28;20220;-73
2022/12/02 09:21:19;;;;;;;22.60;14.47;;;4.30;99.90;;;;;;10432260;28;20256;-73
2022/12/02 09:26:19;;;;;;;23.17;14.57;;;4.30;99.90;;;;;;10443811;28;20224;-73
2022/12/02 09:31:21;;;;;;;21.73;13.57;;;4.30;99.90;;;;;;10436688;28;20216;-73
2022/12/02 09:36:22;;;;;;;20.17;12.63;;;4.40;99.90;;;;;;10435069;28;20212;-73
2022/12/02 09:41:22;;;;;;;20.53;13.63;;;4.40;99.90;;;;;;10412248;28;20231;-73
2022/12/02 09:46:24;;;;;;;17.90;12.37;;;4.50;99.90;;;;;;10432853;28;20216;-73
2022/12/02 09:51:25;;;;;;;17.57;11.47;;;4.50;99.90;;;;;;10432270;28;20224;-73
2022/12/02 09:56:25;;;;;;;18.67;12.00;;;4.40;99.90;;;;;;10433217;28;20222;-74
2022/12/02 10:01:27;;;;;;;15.50;11.47;;;4.20;99.90;;;;;;10432253;28;20227;-74
2022/12/02 10:06:28;;;;;;;15.93;10.93;;;4.20;99.90;;;;;;10430917;28;20222;-73
2022/12/02 10:11:31;;;;;;;17.23;11.93;;;4.20;99.90;;;;;;10431526;28;20232;-72
2022/12/02 10:16:33;;;;;;;15.77;11.50;;;4.30;99.90;;;;;;10441735;28;20216;-73
2022/12/02 10:21:34;;;;;;;16.40;11.37;;;4.40;99.90;;;;;;10439701;28;20913;-73
2022/12/02 10:26:55;;;;;;;18.40;12.27;;;4.40;99.90;;;;;;10430802;28;20310;-74
2022/12/02 10:32:01;;;;;;;15.40;10.77;;;4.40;99.90;;;;;;10427939;28;20230;-73
2022/12/02 10:37:35;;;;;;;16.90;11.30;;;4.30;99.90;;;;;;10428838;28;20875;-73
2022/12/02 10:42:35;;;;;;;15.93;10.70;;;4.30;99.90;;;;;;10401624;28;20223;-73
2022/12/02 10:47:36;;;;;;;16.30;10.87;;;4.40;99.90;;;;;;10430662;28;20695;-74
2022/12/02 10:52:47;;;;;;;15.50;10.60;;;4.40;99.90;;;;;;10435254;28;20263;-74
2022/12/02 10:57:49;;;;;;;16.53;10.77;;;4.50;99.90;;;;;;10428388;28;20795;-74
2022/12/02 11:02:53;;;;;;;15.73;11.43;;;4.50;99.90;;;;;;10431805;28;20231;-73
2022/12/02 11:08:01;;;;;;;15.17;10.73;;;4.50;99.90;;;;;;10442614;28;20217;-73
2022/12/02 11:13:11;;;;;;;15.30;11.10;;;4.50;99.90;;;;;;10432372;28;20226;-72
2022/12/02 11:18:23;;;;;;;15.07;10.50;;;4.50;99.90;;;;;;10434200;28;20229;-74
2022/12/02 11:23:27;;;;;;;15.13;9.97;;;4.50;99.90;;;;;;10433211;28;20216;-75
2022/12/02 11:28:27;;;;;;;14.37;10.83;;;4.50;99.90;;;;;;10434225;28;20232;-73
2022/12/02 11:33:43;;;;;;;13.73;10.37;;;4.60;99.90;;;;;;10433338;28;20235;-72
2022/12/02 11:38:51;;;;;;;15.30;10.83;;;4.50;99.90;;;;;;10432314;28;20259;-74
2022/12/02 11:44:19;;;;;;;15.90;11.23;;;4.50;99.90;;;;;;10426087;28;20220;-73
2022/12/02 11:49:26;;;;;;;14.93;11.27;;;4.50;99.90;;;;;;10429391;28;20220;-73
2022/12/02 11:54:28;;;;;;;13.83;9.80;;;4.60;99.90;;;;;;10429453;28;20306;-74
2022/12/02 11:59:29;;;;;;;15.67;11.43;;;4.50;99.90;;;;;;10429279;28;20224;-73
2022/12/02 12:04:30;;;;;;;12.90;9.87;;;4.40;99.90;;;;;;10429505;28;20236;-74
2022/12/02 12:09:31;;;;;;;13.37;9.50;;;4.50;99.90;;;;;;10429460;28;20219;-73
2022/12/02 12:14:31;;;;;;;15.07;11.07;;;4.40;99.90;;;;;;10426418;28;20604;-73
2022/12/02 12:19:33;;;;;;;13.83;10.17;;;4.30;99.90;;;;;;10429473;28;20766;-74
2022/12/02 12:24:33;;;;;;;14.50;11.07;;;4.30;99.90;;;;;;10431502;28;20315;-73
2022/12/02 12:29:36;;;;;;;16.50;10.90;;;4.20;99.90;;;;;;10437422;28;20303;-74
2022/12/02 12:34:37;;;;;;;14.67;11.23;;;4.20;99.90;;;;;;10426516;28;20220;-74
2022/12/02 12:39:42;;;;;;;14.67;10.67;;;4.30;99.90;;;;;;10429631;28;20212;-73
2022/12/02 12:44:43;;;;;;;15.87;10.97;;;4.20;99.90;;;;;;10424184;28;20212;-72
2022/12/02 12:49:43;;;;;;;16.63;11.10;;;4.20;99.90;;;;;;10428205;28;20254;-73
2022/12/02 12:54:49;;;;;;;15.43;11.07;;;4.20;99.90;;;;;;10425542;28;20279;-73
2022/12/02 12:59:49;;;;;;;18.60;12.13;;;4.20;99.90;;;;;;10438038;28;20290;-74
2022/12/02 13:04:50;;;;;;;16.80;11.90;;;4.20;99.90;;;;;;10432529;28;20694;-74
2022/12/02 13:09:52;;;;;;;17.23;12.27;;;4.20;99.90;;;;;;10430160;28;20622;-74
2022/12/02 13:14:53;;;;;;;17.53;12.17;;;4.20;99.90;;;;;;10432553;28;20224;-74
2022/12/02 13:19:53;;;;;;;16.40;12.27;;;4.20;99.90;;;;;;10434162;28;20747;-72
2022/12/02 13:24:54;;;;;;;14.33;10.87;;;4.20;99.90;;;;;;10431287;28;20221;-74
2022/12/02 13:29:54;;;;;;;14.40;11.27;;;4.10;99.90;;;;;;10429265;28;20312;-73
2022/12/02 13:34:55;;;;;;;16.63;12.20;;;4.10;99.90;;;;;;10421808;28;20221;-72
2022/12/02 13:39:55;;;;;;;17.33;11.90;;;4.10;99.90;;;;;;10430782;28;20217;-74
2022/12/02 13:44:56;;;;;;;16.73;12.47;;;4.10;99.90;;;;;;10422191;28;20303;-73
2022/12/02 13:49:58;;;;;;;17.97;11.93;;;4.10;99.90;;;;;;10430294;28;20224;-74
2022/12/02 13:54:59;;;;;;;17.00;12.17;;;4.10;99.90;;;;;;10422210;28;20236;-73
2022/12/02 13:59:59;;;;;;;18.23;12.93;;;4.10;99.90;;;;;;10429993;28;20227;-73
2022/12/02 14:05:00;;;;;;;19.23;12.73;;;4.10;99.90;;;;;;10431524;28;20232;-73
2022/12/02 14:10:01;;;;;;;19.97;12.80;;;4.10;99.90;;;;;;10429910;28;20971;-73
2022/12/02 14:15:03;;;;;;;19.87;13.03;;;4.00;99.90;;;;;;10440917;28;20220;-72
2022/12/02 14:20:04;;;;;;;18.80;12.67;;;4.00;99.90;;;;;;10426852;28;20240;-73
2022/12/02 14:25:05;;;;;;;19.87;13.20;;;3.90;99.90;;;;;;10427969;28;20347;-74
2022/12/02 14:30:07;;;;;;;18.57;12.33;;;4.00;99.90;;;;;;10434110;28;20188;-73
2022/12/02 14:35:09;;;;;;;17.17;12.13;;;4.00;99.90;;;;;;10428723;28;20204;-73
2022/12/02 14:40:12;;;;;;;17.57;12.40;;;4.00;99.90;;;;;;10433932;28;20255;-73
2022/12/02 14:45:12;;;;;;;17.50;11.77;;;4.00;99.90;;;;;;10429967;28;20181;-73
2022/12/02 14:50:14;;;;;;;17.87;12.67;;;4.00;99.90;;;;;;10434355;28;20206;-73
2022/12/02 14:55:14;;;;;;;16.97;12.80;;;3.90;99.90;;;;;;10437578;28;20201;-73
2022/12/02 15:00:15;;;;;;;16.90;12.37;;;3.90;99.90;;;;;;10441371;28;20180;-74
2022/12/02 15:05:18;;;;;;;17.87;12.90;;;4.00;99.90;;;;;;10428580;28;20604;-71
2022/12/02 15:10:19;;;;;;;18.80;13.63;;;4.00;99.90;;;;;;10463314;28;20192;-70
2022/12/02 15:15:20;;;;;;;18.47;12.50;;;3.90;99.90;;;;;;10426654;28;20207;-70
2022/12/02 15:20:22;;;;;;;17.27;13.03;;;3.90;99.90;;;;;;10427685;28;20269;-69
2022/12/02 15:25:23;;;;;;;16.70;12.33;;;3.90;99.90;;;;;;10436407;28;20191;-75
2022/12/02 15:30:27;;;;;;;18.50;12.67;;;3.90;99.90;;;;;;10433690;28;22399;-70
2022/12/02 15:35:28;;;;;;;16.27;12.07;;;3.80;99.90;;;;;;10428479;28;20251;-70
2022/12/02 15:40:32;;;;;;;16.27;11.83;;;3.80;99.90;;;;;;10430375;28;20286;-71
2022/12/02 15:45:32;;;;;;;17.37;12.53;;;3.80;99.90;;;;;;10432635;28;20236;-70
2022/12/02 15:50:33;;;;;;;15.20;11.33;;;3.80;99.90;;;;;;10430753;28;20247;-70
2022/12/02 15:55:33;;;;;;;15.07;11.97;;;3.80;99.90;;;;;;10427508;28;20224;-71
2022/12/02 16:00:34;;;;;;;16.40;12.00;;;3.80;99.90;;;;;;10430429;28;20222;-70
2022/12/02 16:05:35;;;;;;;16.23;11.93;;;3.80;99.90;;;;;;10423683;28;20219;-71
2022/12/02 16:10:35;;;;;;;15.37;12.37;;;3.80;99.90;;;;;;10427423;28;20723;-72
2022/12/02 16:15:38;;;;;;;18.83;12.00;;;3.90;99.90;;;;;;10427372;28;20258;-71
2022/12/02 16:20:39;;;;;;;15.67;11.33;;;3.80;99.90;;;;;;10426673;28;20224;-71
2022/12/02 16:25:40;;;;;;;14.20;11.23;;;3.90;99.90;;;;;;10427454;28;20808;-71
2022/12/02 16:30:41;;;;;;;14.00;11.23;;;3.80;99.90;;;;;;10425680;28;20594;-74
2022/12/02 16:35:41;;;;;;;14.90;11.40;;;3.80;99.90;;;;;;10428616;28;20226;-74
2022/12/02 16:40:42;;;;;;;14.87;10.37;;;3.80;99.90;;;;;;10426842;28;20217;-73
2022/12/02 16:45:42;;;;;;;14.30;10.70;;;3.80;99.90;;;;;;10428069;28;20697;-74
2022/12/02 16:50:43;;;;;;;15.03;11.40;;;3.80;99.90;;;;;;10423567;28;20221;-74
2022/12/02 16:55:43;;;;;;;13.83;10.87;;;3.70;99.90;;;;;;10423906;28;20228;-72
2022/12/02 17:00:44;;;;;;;13.80;10.70;;;3.70;99.90;;;;;;10423317;28;20223;-74
2022/12/02 17:05:45;;;;;;;14.17;10.60;;;3.70;99.90;;;;;;10438829;28;20223;-73
2022/12/02 17:10:45;;;;;;;13.67;10.47;;;3.60;99.90;;;;;;10438837;28;20269;-74
2022/12/02 17:15:46;;;;;;;12.90;10.37;;;3.60;99.90;;;;;;10424464;28;20223;-73
2022/12/02 17:20:47;;;;;;;13.07;10.03;;;3.60;99.90;;;;;;10423720;28;20216;-73
2022/12/02 17:25:47;;;;;;;14.60;10.50;;;3.60;99.90;;;;;;10428614;28;20227;-74
2022/12/02 17:30:48;;;;;;;15.40;10.53;;;3.50;99.90;;;;;;10425897;28;20267;-74
2022/12/02 17:35:48;;;;;;;13.50;10.43;;;3.60;99.90;;;;;;10429344;28;20231;-74
2022/12/02 17:41:08;;;;;;;12.20;9.50;;;3.60;99.90;;;;;;10431089;28;20244;-74
2022/12/02 17:46:09;;;;;;;12.07;9.77;;;3.60;99.90;;;;;;10442398;28;20219;-73
2022/12/02 17:51:10;;;;;;;13.20;9.73;;;3.60;99.90;;;;;;10436325;28;20650;-74
2022/12/02 17:56:11;;;;;;;12.10;9.53;;;3.50;99.90;;;;;;10433178;28;20221;-75
2022/12/02 18:01:12;;;;;;;12.03;9.27;;;3.50;99.90;;;;;;10436195;28;20227;-77
2022/12/02 18:06:13;;;;;;;12.23;9.53;;;3.50;99.90;;;;;;10444020;28;20654;-77
2022/12/02 18:11:13;;;;;;;11.10;9.20;;;3.50;99.90;;;;;;10450275;28;20212;-79
2022/12/02 18:16:14;;;;;;;13.80;9.83;;;3.50;99.90;;;;;;10449278;28;20683;-76
2022/12/02 18:21:14;;;;;;;12.37;9.40;;;3.60;99.90;;;;;;10450679;28;20579;-75
2022/12/02 18:26:15;;;;;;;12.93;9.63;;;3.50;99.90;;;;;;10449061;28;20207;-78
2022/12/02 18:31:15;;;;;;;11.37;9.27;;;3.50;99.90;;;;;;10447126;28;20212;-76
2022/12/02 18:36:16;;;;;;;10.43;8.40;;;3.50;99.90;;;;;;10450641;28;20228;-75
2022/12/02 18:41:17;;;;;;;10.63;8.60;;;3.50;99.90;;;;;;10449445;28;20435;-77
2022/12/02 18:46:17;;;;;;;10.47;8.57;;;3.40;99.90;;;;;;10449840;28;20212;-75
2022/12/02 18:51:18;;;;;;;12.33;9.07;;;3.40;99.90;;;;;;10448306;28;20239;-76
2022/12/02 18:56:18;;;;;;;12.10;9.33;;;3.40;99.90;;;;;;10445645;28;20318;-76
2022/12/02 19:01:21;;;;;;;11.47;9.20;;;3.40;99.90;;;;;;10438465;28;20228;-77
2022/12/02 19:06:21;;;;;;;11.47;8.50;;;3.40;99.90;;;;;;10444906;28;20315;-76
2022/12/02 19:11:22;;;;;;;11.63;8.83;;;3.30;99.90;;;;;;10433669;28;20302;-75
2022/12/02 19:16:23;;;;;;;12.53;9.47;;;3.30;99.90;;;;;;10435898;28;20228;-76
2022/12/02 19:21:23;;;;;;;10.70;8.43;;;3.40;99.90;;;;;;10427201;28;20647;-75
2022/12/02 19:26:24;;;;;;;10.10;8.80;;;3.30;99.90;;;;;;10446002;28;20211;-75
2022/12/02 19:31:25;;;;;;;11.07;8.73;;;3.40;99.90;;;;;;10430402;28;20307;-75
2022/12/02 19:36:25;;;;;;;10.83;8.37;;;3.30;99.90;;;;;;10428567;28;20669;-76
2022/12/02 19:41:26;;;;;;;11.53;8.83;;;3.30;99.90;;;;;;10433823;28;20242;-75
2022/12/02 19:46:26;;;;;;;11.50;8.70;;;3.20;99.90;;;;;;10429698;28;20599;-72
2022/12/02 19:51:27;;;;;;;11.57;8.03;;;3.20;99.90;;;;;;10430940;28;20242;-71
2022/12/02 19:56:27;;;;;;;10.60;8.43;;;3.10;99.90;;;;;;10426837;28;20227;-75
2022/12/02 20:01:28;;;;;;;12.40;8.70;;;3.20;99.90;;;;;;10429243;28;20224;-76
2022/12/02 20:06:29;;;;;;;10.87;8.40;;;3.20;99.90;;;;;;10427804;28;20224;-71
2022/12/02 20:11:30;;;;;;;12.13;8.17;;;3.20;99.90;;;;;;10426405;28;20216;-72
2022/12/02 20:16:31;;;;;;;12.70;9.43;;;3.10;99.90;;;;;;10443075;28;20284;-72
2022/12/02 20:21:31;;;;;;;11.23;8.50;;;3.10;99.90;;;;;;10437995;28;20263;-72
2022/12/02 20:26:32;;;;;;;11.90;8.83;;;3.10;99.90;;;;;;10422721;28;20697;-73
2022/12/02 20:31:33;;;;;;;10.83;8.23;;;3.10;99.90;;;;;;10431667;28;21041;-71
2022/12/02 20:36:33;;;;;;;10.80;8.17;;;3.10;99.90;;;;;;10433847;28;20226;-71
2022/12/02 20:41:34;;;;;;;9.63;7.70;;;3.10;99.90;;;;;;10428023;28;20362;-72
2022/12/02 20:46:36;;;;;;;9.77;7.73;;;3.10;99.90;;;;;;10430113;28;20222;-76
2022/12/02 20:51:37;;;;;;;14.13;8.83;;;3.00;99.90;;;;;;10438557;28;20229;-75
2022/12/02 20:56:37;;;;;;;10.33;7.87;;;3.00;99.90;;;;;;10426221;28;20227;-75
2022/12/02 21:01:38;;;;;;;10.60;7.93;;;2.90;99.90;;;;;;10429386;28;20211;-76
2022/12/02 21:06:38;;;;;;;12.00;8.80;;;2.90;99.90;;;;;;10446778;28;20630;-76
2022/12/02 21:11:39;;;;;;;12.50;9.67;;;2.90;99.90;;;;;;10440069;28;20228;-76
2022/12/02 21:16:40;;;;;;;12.03;9.07;;;2.90;99.90;;;;;;10445940;28;20645;-75
2022/12/02 21:21:40;;;;;;;12.47;8.77;;;2.90;99.90;;;;;;10442508;28;20277;-76
2022/12/02 21:26:41;;;;;;;11.43;8.30;;;2.90;99.90;;;;;;10437124;28;20219;-75
2022/12/02 21:31:42;;;;;;;11.63;8.60;;;2.90;99.90;;;;;;10430174;28;20239;-75
2022/12/02 21:36:42;;;;;;;11.80;8.67;;;2.90;99.90;;;;;;10451320;28;20683;-77
2022/12/02 21:41:46;;;;;;;12.67;9.43;;;2.80;99.90;;;;;;10427992;28;20764;-76
2022/12/02 21:46:46;;;;;;;12.13;8.77;;;2.90;99.90;;;;;;10438489;28;20232;-75
2022/12/02 21:51:48;;;;;;;11.80;8.83;;;2.80;99.90;;;;;;10438378;28;20224;-76
2022/12/02 21:56:48;;;;;;;11.27;8.97;;;2.80;99.90;;;;;;10449902;28;20215;-77
2022/12/02 22:01:49;;;;;;;13.20;9.63;;;2.80;99.90;;;;;;10430369;28;20630;-76
2022/12/02 22:07:38;;;;;;;13.37;9.50;;;2.80;99.90;;;;;;10437958;28;20235;-76
2022/12/02 22:12:10;;;;;;;13.33;9.17;;;2.80;99.90;;;;;;10431286;28;20224;-76
2022/12/02 22:17:11;;;;;;;11.97;9.07;;;2.80;99.90;;;;;;10436748;28;20246;-77
2022/12/02 22:22:14;;;;;;;12.07;8.53;;;2.90;99.90;;;;;;10437248;28;20238;-77
2022/12/02 22:27:15;;;;;;;13.50;9.63;;;2.80;99.90;;;;;;10434678;28;20240;-75
2022/12/02 22:32:16;;;;;;;13.27;9.63;;;2.90;99.90;;;;;;10429479;28;20255;-76
2022/12/02 22:37:16;;;;;;;15.37;10.00;;;2.80;99.90;;;;;;10434841;28;20216;-75
2022/12/02 22:42:17;;;;;;;12.97;9.87;;;2.80;99.90;;;;;;10428829;28;20345;-76
2022/12/02 22:47:17;;;;;;;13.00;9.43;;;2.80;99.90;;;;;;10436728;28;20236;-75
2022/12/02 22:52:18;;;;;;;12.90;8.93;;;2.90;99.90;;;;;;10430910;28;20224;-78
2022/12/02 22:57:19;;;;;;;14.03;9.50;;;2.90;99.90;;;;;;10443191;28;20222;-77
2022/12/02 23:02:19;;;;;;;14.47;10.23;;;2.80;99.90;;;;;;10448661;28;20223;-77
2022/12/02 23:07:20;;;;;;;14.87;10.20;;;2.80;99.90;;;;;;10448213;28;20239;-76
2022/12/02 23:12:21;;;;;;;14.87;10.10;;;2.70;99.90;;;;;;10446473;28;20587;-76
2022/12/02 23:17:22;;;;;;;14.10;10.27;;;2.80;99.90;;;;;;10433128;28;20259;-78
2022/12/02 23:22:23;;;;;;;13.70;10.00;;;2.80;99.90;;;;;;10437640;28;20223;-77
2022/12/02 23:27:23;;;;;;;16.00;10.50;;;2.80;99.90;;;;;;10441647;28;20224;-76
2022/12/02 23:32:24;;;;;;;15.10;10.80;;;2.70;99.90;;;;;;10427535;28;20370;-78
2022/12/02 23:37:24;;;;;;;13.17;9.70;;;2.70;99.90;;;;;;10424765;28;20212;-77
2022/12/02 23:42:25;;;;;;;14.53;9.97;;;2.60;99.90;;;;;;10419662;28;20220;-76
2022/12/02 23:47:25;;;;;;;15.47;10.77;;;2.60;99.90;;;;;;10435494;28;20211;-73
2022/12/02 23:52:26;;;;;;;15.50;10.43;;;2.60;99.90;;;;;;10442913;28;20273;-72
2022/12/02 23:57:27;;;;;;;15.73;11.37;;;2.60;99.90;;;;;;10421915;28;20216;-71
